Airfield :
LOGIN :

Register | Disclaimer

   EN    FR    IT 

 










Legend :    VFR   Marginal VFR   IFR   Intensive IFR   Very Intensive IFR
Visi :
Ceiling :
>= 8 km
>= 3000ft
5 to 8 km
1000 to 3000 ft
1500m to 5 km
500 to 1000 ft
800 to 1500m
200 to 500 ft
< 800m
< 200 ft
Symbols :   Thunderstorms  Fog  Heavy snow  Heavy precipitations  Wind > 20 kt
SIGMETs :     Misc.  Thunderstorms  Icing  Turbulence  Mountain Waves  Volcanic Ashes






- Airport Elevation : 2220 ft


LOXZ - Zeltweg AB

CURRENT METAR :
  • 120650Z VRB02KT 15KM FEW010ST BKN013ST 17/15 Q1021 NOSIG

EXPIRED METARs :
  • 120620Z VRB01KT 15KM FEW008ST BKN013ST 16/15 Q1021 NOSIG
  • 120550Z 00000KT 15KM FEW008ST BKN013ST 16/15 Q1021 NOSIG
  • 120520Z 00000KT 15KM FEW008ST BKN013ST 16/14 Q1021 NOSIG
  • 120450Z VRB01KT 15KM FEW008ST BKN014ST 16/14 Q1021
  • 120350Z 24002KT 10KM FEW008ST BKN014ST 16/15 Q1021

TAF TAF LOXZ
Valid from the 12 at 06:00 until the 12 at 15:00 UTC


120515Z 1206/1215 VRB03KT 8000 FEW008 BKN015
BECMG 1207/1209 9999 FEW050
BECMG 1209/1211 12006KT FEW050CB SCT090
PROB40
TEMPO 1211/1215 VRB15KT 3000 TSRA BKN030CB



MET'MAP, your aeronautical weather chart ! - Copyright ORBIFLY December 2007 - Disclaimer

ORBIFLY MET'MAP TEAM :

Programming & Development : Alexandra Zaïnal
Concept & original design : Baudouin d'Aumeries
Assistance for programming : Marc-Olivier Méhu
Technical & hardware support : Manuel Goepfert

Contact : metmap@orbifly.com




SOURCES & CREDITS :

   NOAA